sensor_id;sensor_type;location;lat;lon;timestamp;temperature;humidity
45213;DHT22;35816;44.498;0.166;2022-08-01T07:18:45;19.70;99.90
45213;DHT22;35816;44.498;0.166;2022-08-01T07:27:40;20.30;99.90
45213;DHT22;35816;44.498;0.166;2022-08-01T07:51:50;20.60;99.90
45213;DHT22;35816;44.498;0.166;2022-08-01T07:58:26;20.80;99.90
45213;DHT22;35816;44.498;0.166;2022-08-01T08:00:45;20.90;99.90
45213;DHT22;35816;44.498;0.166;2022-08-01T08:03:20;20.90;99.90
45213;DHT22;35816;44.498;0.166;2022-08-01T08:05:54;20.90;99.90
45213;DHT22;35816;44.498;0.166;2022-08-01T09:26:42;23.30;96.10
45213;DHT22;35816;44.498;0.166;2022-08-01T09:32:09;23.60;95.00
45213;DHT22;35816;44.498;0.166;2022-08-01T09:40:48;24.10;93.70
45213;DHT22;35816;44.498;0.166;2022-08-01T09:43:54;24.40;93.00
45213;DHT22;35816;44.498;0.166;2022-08-01T09:46:31;24.60;92.10
45213;DHT22;35816;44.498;0.166;2022-08-01T09:55:09;25.30;89.80
45213;DHT22;35816;44.498;0.166;2022-08-01T10:01:10;25.70;85.90
45213;DHT22;35816;44.498;0.166;2022-08-01T10:13:04;26.60;78.90
45213;DHT22;35816;44.498;0.166;2022-08-01T10:15:30;26.90;76.40
45213;DHT22;35816;44.498;0.166;2022-08-01T10:18:00;27.10;75.80
45213;DHT22;35816;44.498;0.166;2022-08-01T10:20:29;27.40;74.00
45213;DHT22;35816;44.498;0.166;2022-08-01T10:22:55;27.60;72.30
45213;DHT22;35816;44.498;0.166;2022-08-01T10:25:21;28.00;71.90
45213;DHT22;35816;44.498;0.166;2022-08-01T10:27:50;28.30;70.30
45213;DHT22;35816;44.498;0.166;2022-08-01T10:31:02;28.50;69.60
45213;DHT22;35816;44.498;0.166;2022-08-01T10:33:12;28.80;69.20
45213;DHT22;35816;44.498;0.166;2022-08-01T10:35:43;29.10;67.50
45213;DHT22;35816;44.498;0.166;2022-08-01T10:38:30;29.30;66.30
45213;DHT22;35816;44.498;0.166;2022-08-01T10:40:57;29.60;66.00
45213;DHT22;35816;44.498;0.166;2022-08-01T10:43:24;30.00;64.80
45213;DHT22;35816;44.498;0.166;2022-08-01T10:45:50;30.20;63.70
45213;DHT22;35816;44.498;0.166;2022-08-01T10:48:34;30.50;63.30
45213;DHT22;35816;44.498;0.166;2022-08-01T10:51:04;30.70;62.20
45213;DHT22;35816;44.498;0.166;2022-08-01T10:53:30;30.90;61.30
45213;DHT22;35816;44.498;0.166;2022-08-01T10:58:25;31.10;60.00
45213;DHT22;35816;44.498;0.166;2022-08-01T11:03:35;31.40;58.90
45213;DHT22;35816;44.498;0.166;2022-08-01T11:06:00;31.80;59.00
45213;DHT22;35816;44.498;0.166;2022-08-01T11:08:28;32.20;59.70
45213;DHT22;35816;44.498;0.166;2022-08-01T11:10:59;33.00;59.50
45213;DHT22;35816;44.498;0.166;2022-08-01T11:16:25;34.70;58.20
45213;DHT22;35816;44.498;0.166;2022-08-01T11:18:51;35.50;56.70
45213;DHT22;35816;44.498;0.166;2022-08-01T11:21:16;36.10;54.00
45213;DHT22;35816;44.498;0.166;2022-08-01T11:23:48;36.40;52.10
45213;DHT22;35816;44.498;0.166;2022-08-01T11:26:14;36.90;51.30
45213;DHT22;35816;44.498;0.166;2022-08-01T11:28:40;37.40;49.50
45213;DHT22;35816;44.498;0.166;2022-08-01T11:38:35;39.90;47.20
45213;DHT22;35816;44.498;0.166;2022-08-01T11:41:18;40.70;46.50
45213;DHT22;35816;44.498;0.166;2022-08-01T11:44:02;41.10;44.60
45213;DHT22;35816;44.498;0.166;2022-08-01T11:49:28;41.80;43.40
45213;DHT22;35816;44.498;0.166;2022-08-01T11:52:08;42.40;42.90
45213;DHT22;35816;44.498;0.166;2022-08-01T11:57:03;42.10;41.50
45213;DHT22;35816;44.498;0.166;2022-08-01T11:59:34;42.30;40.50
45213;DHT22;35816;44.498;0.166;2022-08-01T12:02:00;42.10;40.10
45213;DHT22;35816;44.498;0.166;2022-08-01T12:04:43;42.50;40.20
45213;DHT22;35816;44.498;0.166;2022-08-01T12:07:13;43.40;39.70
45213;DHT22;35816;44.498;0.166;2022-08-01T12:09:38;44.00;38.70
45213;DHT22;35816;44.498;0.166;2022-08-01T12:12:04;44.70;38.10
45213;DHT22;35816;44.498;0.166;2022-08-01T12:14:30;45.40;37.30
45213;DHT22;35816;44.498;0.166;2022-08-01T12:16:55;45.20;37.10
45213;DHT22;35816;44.498;0.166;2022-08-01T12:19:21;45.20;37.10
45213;DHT22;35816;44.498;0.166;2022-08-01T12:22:07;45.10;36.80
45213;DHT22;35816;44.498;0.166;2022-08-01T12:24:33;45.10;36.90
45213;DHT22;35816;44.498;0.166;2022-08-01T12:26:59;45.60;36.10
45213;DHT22;35816;44.498;0.166;2022-08-01T12:29:32;45.20;35.70
45213;DHT22;35816;44.498;0.166;2022-08-01T12:31:58;44.50;36.20
45213;DHT22;35816;44.498;0.166;2022-08-01T12:34:30;44.50;36.10
45213;DHT22;35816;44.498;0.166;2022-08-01T12:37:00;44.80;36.20
45213;DHT22;35816;44.498;0.166;2022-08-01T12:39:29;45.50;35.50
45213;DHT22;35816;44.498;0.166;2022-08-01T12:41:55;45.90;34.90
45213;DHT22;35816;44.498;0.166;2022-08-01T12:44:21;46.40;34.30
45213;DHT22;35816;44.498;0.166;2022-08-01T12:46:47;47.20;33.50
45213;DHT22;35816;44.498;0.166;2022-08-01T12:49:12;47.80;33.10
45213;DHT22;35816;44.498;0.166;2022-08-01T12:51:38;48.40;32.10
45213;DHT22;35816;44.498;0.166;2022-08-01T12:54:04;48.80;32.30
45213;DHT22;35816;44.498;0.166;2022-08-01T12:56:33;49.00;31.80
45213;DHT22;35816;44.498;0.166;2022-08-01T12:58:59;48.70;32.20
45213;DHT22;35816;44.498;0.166;2022-08-01T13:01:26;48.90;32.00
45213;DHT22;35816;44.498;0.166;2022-08-01T13:04:01;49.30;31.90
45213;DHT22;35816;44.498;0.166;2022-08-01T13:06:29;49.40;32.00
45213;DHT22;35816;44.498;0.166;2022-08-01T13:09:04;49.70;31.90
45213;DHT22;35816;44.498;0.166;2022-08-01T13:11:31;49.20;31.60
45213;DHT22;35816;44.498;0.166;2022-08-01T13:13:56;49.10;31.00
45213;DHT22;35816;44.498;0.166;2022-08-01T13:16:25;49.20;31.20
45213;DHT22;35816;44.498;0.166;2022-08-01T13:18:51;48.90;30.40
45213;DHT22;35816;44.498;0.166;2022-08-01T13:24:05;48.40;30.10
45213;DHT22;35816;44.498;0.166;2022-08-01T13:31:58;48.10;30.70
45213;DHT22;35816;44.498;0.166;2022-08-01T13:34:33;48.10;31.00
45213;DHT22;35816;44.498;0.166;2022-08-01T13:37:00;48.00;30.80
45213;DHT22;35816;44.498;0.166;2022-08-01T13:39:29;48.40;30.30
45213;DHT22;35816;44.498;0.166;2022-08-01T13:42:12;48.90;30.20
45213;DHT22;35816;44.498;0.166;2022-08-01T13:44:39;49.00;30.10
45213;DHT22;35816;44.498;0.166;2022-08-01T13:47:05;48.40;30.10
45213;DHT22;35816;44.498;0.166;2022-08-01T13:49:30;48.40;30.30
45213;DHT22;35816;44.498;0.166;2022-08-01T13:51:56;48.00;30.50
45213;DHT22;35816;44.498;0.166;2022-08-01T13:54:22;47.50;30.70
45213;DHT22;35816;44.498;0.166;2022-08-01T13:56:49;47.50;30.70
45213;DHT22;35816;44.498;0.166;2022-08-01T13:59:14;47.40;30.20
45213;DHT22;35816;44.498;0.166;2022-08-01T14:01:40;46.80;29.90
45213;DHT22;35816;44.498;0.166;2022-08-01T14:04:05;46.10;29.90
45213;DHT22;35816;44.498;0.166;2022-08-01T14:06:31;45.20;30.70
45213;DHT22;35816;44.498;0.166;2022-08-01T14:08:57;45.00;31.30
45213;DHT22;35816;44.498;0.166;2022-08-01T14:11:23;45.60;31.40
45213;DHT22;35816;44.498;0.166;2022-08-01T14:13:49;46.30;30.90
45213;DHT22;35816;44.498;0.166;2022-08-01T14:16:17;47.10;30.30
45213;DHT22;35816;44.498;0.166;2022-08-01T14:18:42;47.50;29.90
45213;DHT22;35816;44.498;0.166;2022-08-01T14:21:08;47.40;29.90
45213;DHT22;35816;44.498;0.166;2022-08-01T14:23:33;47.20;30.00
45213;DHT22;35816;44.498;0.166;2022-08-01T14:26:01;47.50;29.80
45213;DHT22;35816;44.498;0.166;2022-08-01T14:28:27;47.70;30.00
45213;DHT22;35816;44.498;0.166;2022-08-01T14:30:53;48.20;29.80
45213;DHT22;35816;44.498;0.166;2022-08-01T14:33:20;48.60;29.20
45213;DHT22;35816;44.498;0.166;2022-08-01T14:35:56;48.80;29.10
45213;DHT22;35816;44.498;0.166;2022-08-01T14:38:22;48.70;28.90
45213;DHT22;35816;44.498;0.166;2022-08-01T14:40:47;48.70;29.00
45213;DHT22;35816;44.498;0.166;2022-08-01T14:43:17;48.80;28.90
45213;DHT22;35816;44.498;0.166;2022-08-01T14:45:42;49.30;28.60
45213;DHT22;35816;44.498;0.166;2022-08-01T14:48:08;49.60;28.50
45213;DHT22;35816;44.498;0.166;2022-08-01T14:50:33;49.80;28.60
45213;DHT22;35816;44.498;0.166;2022-08-01T14:52:59;50.00;28.10
45213;DHT22;35816;44.498;0.166;2022-08-01T14:55:24;50.10;28.00
45213;DHT22;35816;44.498;0.166;2022-08-01T14:57:52;50.00;28.20
45213;DHT22;35816;44.498;0.166;2022-08-01T15:00:18;49.90;28.20
45213;DHT22;35816;44.498;0.166;2022-08-01T15:02:45;49.60;28.20
45213;DHT22;35816;44.498;0.166;2022-08-01T15:05:11;49.90;28.10
45213;DHT22;35816;44.498;0.166;2022-08-01T15:07:37;49.60;28.00
45213;DHT22;35816;44.498;0.166;2022-08-01T15:10:03;48.90;28.00
45213;DHT22;35816;44.498;0.166;2022-08-01T15:12:29;48.80;28.00
45213;DHT22;35816;44.498;0.166;2022-08-01T15:14:54;48.20;28.20
45213;DHT22;35816;44.498;0.166;2022-08-01T15:17:21;48.00;28.20
45213;DHT22;35816;44.498;0.166;2022-08-01T15:19:47;48.10;28.20
45213;DHT22;35816;44.498;0.166;2022-08-01T15:22:13;48.40;28.20
45213;DHT22;35816;44.498;0.166;2022-08-01T15:24:38;48.50;28.10
45213;DHT22;35816;44.498;0.166;2022-08-01T15:27:04;48.80;28.00
45213;DHT22;35816;44.498;0.166;2022-08-01T15:29:30;49.00;28.20
45213;DHT22;35816;44.498;0.166;2022-08-01T15:31:56;49.00;28.00
45213;DHT22;35816;44.498;0.166;2022-08-01T15:34:23;48.60;28.10
45213;DHT22;35816;44.498;0.166;2022-08-01T15:36:48;48.20;28.30
45213;DHT22;35816;44.498;0.166;2022-08-01T15:39:14;48.10;28.30
45213;DHT22;35816;44.498;0.166;2022-08-01T15:41:40;48.10;28.20
45213;DHT22;35816;44.498;0.166;2022-08-01T15:44:05;48.30;28.20
45213;DHT22;35816;44.498;0.166;2022-08-01T15:46:31;48.40;28.20
45213;DHT22;35816;44.498;0.166;2022-08-01T15:48:57;48.50;28.20
45213;DHT22;35816;44.498;0.166;2022-08-01T15:51:22;48.50;28.10
45213;DHT22;35816;44.498;0.166;2022-08-01T15:53:48;48.20;28.80
45213;DHT22;35816;44.498;0.166;2022-08-01T15:56:13;47.80;28.30
45213;DHT22;35816;44.498;0.166;2022-08-01T15:58:39;47.50;28.40
45213;DHT22;35816;44.498;0.166;2022-08-01T16:01:05;47.00;28.30
45213;DHT22;35816;44.498;0.166;2022-08-01T16:03:30;46.40;28.60
45213;DHT22;35816;44.498;0.166;2022-08-01T16:05:56;46.10;28.70
45213;DHT22;35816;44.498;0.166;2022-08-01T16:08:21;46.20;28.70
45213;DHT22;35816;44.498;0.166;2022-08-01T16:10:47;46.50;28.70
45213;DHT22;35816;44.498;0.166;2022-08-01T16:13:13;46.50;28.50
45213;DHT22;35816;44.498;0.166;2022-08-01T16:15:38;46.20;28.70
45213;DHT22;35816;44.498;0.166;2022-08-01T16:18:04;45.80;28.80
45213;DHT22;35816;44.498;0.166;2022-08-01T16:20:30;45.70;28.90
45213;DHT22;35816;44.498;0.166;2022-08-01T16:22:55;45.80;29.00
45213;DHT22;35816;44.498;0.166;2022-08-01T16:25:24;45.80;28.90
45213;DHT22;35816;44.498;0.166;2022-08-01T16:27:49;45.80;28.90
45213;DHT22;35816;44.498;0.166;2022-08-01T16:30:15;45.50;28.90
45213;DHT22;35816;44.498;0.166;2022-08-01T16:32:40;45.40;28.90
45213;DHT22;35816;44.498;0.166;2022-08-01T16:35:06;45.50;28.90
45213;DHT22;35816;44.498;0.166;2022-08-01T16:37:32;45.50;29.00
45213;DHT22;35816;44.498;0.166;2022-08-01T16:39:57;45.20;29.10
45213;DHT22;35816;44.498;0.166;2022-08-01T16:42:23;44.80;29.20
45213;DHT22;35816;44.498;0.166;2022-08-01T16:44:48;44.50;29.30
45213;DHT22;35816;44.498;0.166;2022-08-01T16:47:14;44.50;29.30
45213;DHT22;35816;44.498;0.166;2022-08-01T16:49:39;44.40;29.40
45213;DHT22;35816;44.498;0.166;2022-08-01T16:52:05;43.90;29.60
45213;DHT22;35816;44.498;0.166;2022-08-01T16:54:31;43.50;29.80
45213;DHT22;35816;44.498;0.166;2022-08-01T16:56:57;43.40;29.70
45213;DHT22;35816;44.498;0.166;2022-08-01T16:59:25;43.40;29.80
45213;DHT22;35816;44.498;0.166;2022-08-01T17:01:50;43.20;29.80
45213;DHT22;35816;44.498;0.166;2022-08-01T17:04:16;42.90;29.80
45213;DHT22;35816;44.498;0.166;2022-08-01T17:06:42;42.60;30.00
45213;DHT22;35816;44.498;0.166;2022-08-01T17:09:08;42.30;30.20
45213;DHT22;35816;44.498;0.166;2022-08-01T17:11:33;42.00;30.30
45213;DHT22;35816;44.498;0.166;2022-08-01T17:13:59;41.90;30.40
45213;DHT22;35816;44.498;0.166;2022-08-01T17:16:25;41.70;30.60
45213;DHT22;35816;44.498;0.166;2022-08-01T17:18:50;41.60;30.60
45213;DHT22;35816;44.498;0.166;2022-08-01T17:21:16;41.30;31.00
45213;DHT22;35816;44.498;0.166;2022-08-01T17:23:42;41.20;31.10
45213;DHT22;35816;44.498;0.166;2022-08-01T17:26:08;41.00;31.20
45213;DHT22;35816;44.498;0.166;2022-08-01T17:28:33;41.00;31.20
45213;DHT22;35816;44.498;0.166;2022-08-01T17:30:59;40.90;31.30
45213;DHT22;35816;44.498;0.166;2022-08-01T17:33:24;40.90;31.50
45213;DHT22;35816;44.498;0.166;2022-08-01T17:35:50;40.80;31.50
45213;DHT22;35816;44.498;0.166;2022-08-01T17:38:16;40.60;31.70
45213;DHT22;35816;44.498;0.166;2022-08-01T17:40:43;40.40;31.90
45213;DHT22;35816;44.498;0.166;2022-08-01T17:43:09;40.20;32.00
45213;DHT22;35816;44.498;0.166;2022-08-01T17:45:34;39.90;32.30
45213;DHT22;35816;44.498;0.166;2022-08-01T17:48:00;39.60;32.50
45213;DHT22;35816;44.498;0.166;2022-08-01T17:50:26;39.30;32.70
45213;DHT22;35816;44.498;0.166;2022-08-01T17:52:51;39.00;33.00
45213;DHT22;35816;44.498;0.166;2022-08-01T17:55:17;38.80;33.20
45213;DHT22;35816;44.498;0.166;2022-08-01T17:57:42;38.60;33.30
45213;DHT22;35816;44.498;0.166;2022-08-01T18:00:08;38.50;33.50
45213;DHT22;35816;44.498;0.166;2022-08-01T18:02:34;38.40;33.50
45213;DHT22;35816;44.498;0.166;2022-08-01T18:05:00;38.30;33.60
45213;DHT22;35816;44.498;0.166;2022-08-01T18:07:25;38.10;33.80
45213;DHT22;35816;44.498;0.166;2022-08-01T18:09:51;37.90;33.90
45213;DHT22;35816;44.498;0.166;2022-08-01T18:12:17;37.60;34.10
45213;DHT22;35816;44.498;0.166;2022-08-01T18:14:43;37.30;34.30
45213;DHT22;35816;44.498;0.166;2022-08-01T18:17:08;36.90;34.50
45213;DHT22;35816;44.498;0.166;2022-08-01T18:19:34;36.50;34.80
45213;DHT22;35816;44.498;0.166;2022-08-01T18:22:00;36.30;35.00
45213;DHT22;35816;44.498;0.166;2022-08-01T18:24:25;36.10;35.20
45213;DHT22;35816;44.498;0.166;2022-08-01T18:26:51;35.80;35.30
45213;DHT22;35816;44.498;0.166;2022-08-01T18:29:18;35.70;35.50
45213;DHT22;35816;44.498;0.166;2022-08-01T18:31:44;35.50;35.60
45213;DHT22;35816;44.498;0.166;2022-08-01T18:34:09;35.40;35.70
45213;DHT22;35816;44.498;0.166;2022-08-01T18:36:35;35.20;35.90
45213;DHT22;35816;44.498;0.166;2022-08-01T18:39:02;35.00;36.00
45213;DHT22;35816;44.498;0.166;2022-08-01T18:41:28;34.80;36.20
45213;DHT22;35816;44.498;0.166;2022-08-01T18:43:54;34.60;36.40
45213;DHT22;35816;44.498;0.166;2022-08-01T18:46:19;34.40;36.60
45213;DHT22;35816;44.498;0.166;2022-08-01T18:48:45;34.20;36.80
45213;DHT22;35816;44.498;0.166;2022-08-01T18:51:11;34.00;37.00
45213;DHT22;35816;44.498;0.166;2022-08-01T18:53:36;33.70;37.20
45213;DHT22;35816;44.498;0.166;2022-08-01T18:56:03;33.50;37.40
45213;DHT22;35816;44.498;0.166;2022-08-01T18:58:35;33.40;37.60
45213;DHT22;35816;44.498;0.166;2022-08-01T19:01:01;33.10;37.70
45213;DHT22;35816;44.498;0.166;2022-08-01T19:03:26;32.80;38.00
45213;DHT22;35816;44.498;0.166;2022-08-01T19:05:52;32.60;38.20
45213;DHT22;35816;44.498;0.166;2022-08-01T19:08:20;32.40;38.40
45213;DHT22;35816;44.498;0.166;2022-08-01T19:10:46;32.20;38.60
45213;DHT22;35816;44.498;0.166;2022-08-01T19:13:12;32.00;38.80
45213;DHT22;35816;44.498;0.166;2022-08-01T19:15:38;31.80;39.20
45213;DHT22;35816;44.498;0.166;2022-08-01T19:18:04;31.60;39.40
45213;DHT22;35816;44.498;0.166;2022-08-01T19:20:30;31.40;39.80
45213;DHT22;35816;44.498;0.166;2022-08-01T19:22:56;31.20;39.90
45213;DHT22;35816;44.498;0.166;2022-08-01T19:25:22;31.10;40.00
45213;DHT22;35816;44.498;0.166;2022-08-01T19:27:48;31.00;40.20
45213;DHT22;35816;44.498;0.166;2022-08-01T19:30:15;30.80;40.90
45213;DHT22;35816;44.498;0.166;2022-08-01T19:32:42;30.70;41.30
45213;DHT22;35816;44.498;0.166;2022-08-01T19:35:08;30.50;40.80
45213;DHT22;35816;44.498;0.166;2022-08-01T19:37:36;30.40;41.00
45213;DHT22;35816;44.498;0.166;2022-08-01T19:40:05;30.30;41.20
45213;DHT22;35816;44.498;0.166;2022-08-01T19:42:31;30.10;41.20
45213;DHT22;35816;44.498;0.166;2022-08-01T19:44:56;30.00;41.40
45213;DHT22;35816;44.498;0.166;2022-08-01T19:47:23;29.80;41.60
45213;DHT22;35816;44.498;0.166;2022-08-01T19:49:49;29.70;41.80
45213;DHT22;35816;44.498;0.166;2022-08-01T19:52:16;29.60;42.30
45213;DHT22;35816;44.498;0.166;2022-08-01T19:54:43;29.50;42.50
45213;DHT22;35816;44.498;0.166;2022-08-01T19:57:11;29.40;42.70
45213;DHT22;35816;44.498;0.166;2022-08-01T19:59:37;29.30;43.00
45213;DHT22;35816;44.498;0.166;2022-08-01T20:02:03;29.20;43.10
45213;DHT22;35816;44.498;0.166;2022-08-01T20:04:29;29.10;43.30
45213;DHT22;35816;44.498;0.166;2022-08-01T20:06:55;29.00;43.60
45213;DHT22;35816;44.498;0.166;2022-08-01T20:09:21;28.80;43.60
45213;DHT22;35816;44.498;0.166;2022-08-01T20:11:48;28.70;43.60
45213;DHT22;35816;44.498;0.166;2022-08-01T20:14:18;28.60;44.50
45213;DHT22;35816;44.498;0.166;2022-08-01T20:16:44;28.50;44.20
45213;DHT22;35816;44.498;0.166;2022-08-01T20:19:10;28.50;44.40
45213;DHT22;35816;44.498;0.166;2022-08-01T20:21:36;28.40;44.70
45213;DHT22;35816;44.498;0.166;2022-08-01T20:24:02;28.20;45.10
45213;DHT22;35816;44.498;0.166;2022-08-01T20:26:28;28.10;45.60
45213;DHT22;35816;44.498;0.166;2022-08-01T20:28:54;28.00;45.90
45213;DHT22;35816;44.498;0.166;2022-08-01T20:31:22;27.80;46.00
45213;DHT22;35816;44.498;0.166;2022-08-01T20:33:50;27.70;46.30
45213;DHT22;35816;44.498;0.166;2022-08-01T20:36:17;27.60;46.60
45213;DHT22;35816;44.498;0.166;2022-08-01T20:38:42;27.50;47.00
45213;DHT22;35816;44.498;0.166;2022-08-01T20:41:08;27.40;47.30
45213;DHT22;35816;44.498;0.166;2022-08-01T20:43:34;27.30;47.60
45213;DHT22;35816;44.498;0.166;2022-08-01T20:46:03;27.20;47.60
45213;DHT22;35816;44.498;0.166;2022-08-01T20:48:29;27.10;48.00
45213;DHT22;35816;44.498;0.166;2022-08-01T20:50:57;27.00;48.20
45213;DHT22;35816;44.498;0.166;2022-08-01T20:53:47;27.00;48.40
45213;DHT22;35816;44.498;0.166;2022-08-01T20:56:30;26.90;48.50
45213;DHT22;35816;44.498;0.166;2022-08-01T20:58:59;26.80;48.60
45213;DHT22;35816;44.498;0.166;2022-08-01T21:01:27;26.70;48.90
45213;DHT22;35816;44.498;0.166;2022-08-01T21:06:19;26.70;49.70
45213;DHT22;35816;44.498;0.166;2022-08-01T21:08:57;26.60;49.80
45213;DHT22;35816;44.498;0.166;2022-08-01T21:11:27;26.60;50.70
45213;DHT22;35816;44.498;0.166;2022-08-01T21:13:55;26.60;50.80
45213;DHT22;35816;44.498;0.166;2022-08-01T21:16:24;26.50;51.10
45213;DHT22;35816;44.498;0.166;2022-08-01T21:18:55;26.50;51.70
45213;DHT22;35816;44.498;0.166;2022-08-01T21:21:21;26.50;51.80
45213;DHT22;35816;44.498;0.166;2022-08-01T21:26:21;26.40;52.10
45213;DHT22;35816;44.498;0.166;2022-08-01T21:28:48;26.30;52.20
45213;DHT22;35816;44.498;0.166;2022-08-01T21:31:14;26.20;52.30
45213;DHT22;35816;44.498;0.166;2022-08-01T21:33:40;26.20;52.80
45213;DHT22;35816;44.498;0.166;2022-08-01T21:36:07;26.20;52.90
45213;DHT22;35816;44.498;0.166;2022-08-01T21:38:56;26.10;53.10
45213;DHT22;35816;44.498;0.166;2022-08-01T21:44:42;26.00;53.60
45213;DHT22;35816;44.498;0.166;2022-08-01T21:47:49;26.00;54.00
45213;DHT22;35816;44.498;0.166;2022-08-01T21:50:14;25.90;53.80
45213;DHT22;35816;44.498;0.166;2022-08-01T21:52:44;25.80;54.20
45213;DHT22;35816;44.498;0.166;2022-08-01T21:55:31;25.80;54.30
